Salem, IL

3:17 AM CDT on September 30, 2016 (GMT -0500)
Salem-Leckrone

Weather History for KSLO - August, 2013

Change the Weather History Date:

Tuesday, August 27, 2013

  Actual Average Record
Temperature  
Mean Temperature 82 °F -  
Max Temperature 92 °F 86 °F 98 °F (1990)
Min Temperature 72 °F 63 °F 50 °F (1967)
Cooling Degree Days 17    
Growing Degree Days 32 (Base 50)    
Moisture  
Dew Point 73 °F    
Average Humidity 77    
Maximum Humidity 99    
Minimum Humidity 50    
Precipitation  
Precipitation 0.00 in - - ()
Sea Level Pressure  
Sea Level Pressure 30.06 in    
Wind  
Wind Speed 5 mph (SW)    
Max Wind Speed 10 mph    
Max Gust Speed -    
Visibility 9 miles    
Events      
Averages and records for this station are not official NWS values.
T = Trace of Precipitation, MM = Missing Value Source: NWS Daily Summary

Daily Weather History Graph

Daily Weather History Graph

Search for Another Location

Airport or City:

Trip Planner

Search our weather history database for the weather conditions in past years. The results will help you decide how hot, cold, wet, or windy it might be!

Date:

Astronomy

Aug. 27, 2013 Rise Set
Actual Time 6:20 AM CDT 7:33 PM CDT
Civil Twilight 5:53 AM CDT 8:00 PM CDT
Nautical Twilight 5:20 AM CDT 8:33 PM CDT
Astronomical Twilight 4:46 AM CDT 9:07 PM CDT
Moon 11:31 PM CDT (8/27) 1:13 PM CDT (8/27)
Length of Visible Light 14h 07m
Length of Day
13h 12m
Waning Gibbous, 57% of the Moon is Illuminated
Aug 27
Waning Gibbous
Aug 28
Last Quarter
Sep 5
New
Sep 12
First Quarter
Sep 19
Full

Hourly Weather History & Observations

Time (CDT) Temp. Heat Index Dew Point Humidity Pressure Visibility Wind Dir Wind Speed Gust Speed Precip Events Conditions
12:15 AM 77.4 °F - 72.5 °F 85% 30.11 in 10.0 mi SSW 4.6 mph - N/A   Scattered Clouds
12:35 AM 77.2 °F - 72.5 °F 85% 30.12 in 7.0 mi SSW 5.8 mph - N/A   Scattered Clouds
12:55 AM 77.5 °F - 72.7 °F 85% 30.11 in 10.0 mi SSW 4.6 mph - N/A   Mostly Cloudy
1:15 AM 77.4 °F - 72.7 °F 85% 30.10 in 7.0 mi SSW 5.8 mph - N/A   Mostly Cloudy
1:35 AM 77.0 °F - 72.5 °F 86% 30.10 in 7.0 mi SSW 4.6 mph - N/A   Scattered Clouds
1:55 AM 77.0 °F - 72.5 °F 86% 30.09 in 7.0 mi SW 4.6 mph - N/A   Clear
2:15 AM 76.1 °F - 72.5 °F 89% 30.09 in 7.0 mi SSW 5.8 mph - N/A   Clear
2:35 AM 76.1 °F - 72.5 °F 89% 30.09 in 7.0 mi SSW 4.6 mph - N/A   Clear
2:55 AM 75.9 °F - 72.5 °F 89% 30.09 in 7.0 mi SW 4.6 mph - N/A   Clear
3:15 AM 75.4 °F - 72.5 °F 91% 30.09 in 7.0 mi SW 4.6 mph - N/A   Clear
3:35 AM 75.2 °F - 72.5 °F 91% 30.09 in 7.0 mi SW 4.6 mph - N/A   Clear
3:55 AM 74.8 °F - 72.1 °F 91% 30.09 in 7.0 mi SW 4.6 mph - N/A   Clear
4:15 AM 74.5 °F - 72.1 °F 92% - 7.0 mi SW 4.6 mph - N/A   Clear
4:35 AM 74.7 °F - 72.1 °F 92% 30.09 in 7.0 mi SW 4.6 mph - N/A   Clear
4:55 AM 74.3 °F - 72.1 °F 93% 30.08 in 7.0 mi SW 4.6 mph - N/A   Clear
5:15 AM 73.9 °F - 72.3 °F 95% 30.08 in 5.0 mi SW 4.6 mph - N/A   Clear
5:35 AM 73.8 °F - 72.3 °F 95% 30.08 in 5.0 mi SW 3.5 mph - N/A   Clear
5:55 AM 73.4 °F - 72.3 °F 96% 30.09 in 5.0 mi SW 3.5 mph - N/A   Clear
6:15 AM 72.9 °F - 72.5 °F 99% 30.09 in 5.0 mi SW 3.5 mph - N/A   Clear
6:35 AM 73.4 °F - 72.1 °F 96% 30.09 in 5.0 mi SW 3.5 mph - N/A   Clear
6:55 AM 73.4 °F - 72.5 °F 97% 30.09 in 4.0 mi SW 3.5 mph - N/A   Clear
7:15 AM 73.9 °F - 72.5 °F 95% 30.09 in 5.0 mi SW 3.5 mph - N/A   Clear
7:35 AM 74.7 °F - 72.5 °F 93% 30.10 in 5.0 mi SW 3.5 mph - N/A   Clear
7:55 AM 75.4 °F - 72.5 °F 91% 30.10 in 7.0 mi WSW 3.5 mph - N/A   Clear
8:15 AM 76.5 °F - 72.5 °F 87% 30.10 in 7.0 mi WSW 5.8 mph - N/A   Clear
8:35 AM 78.8 °F - 72.7 °F 81% 30.10 in 10.0 mi WSW 6.9 mph - N/A   Clear
8:55 AM 79.5 °F - 72.5 °F 79% 30.11 in 10.0 mi WSW 10.4 mph - N/A   Clear
9:15 AM 80.2 °F 84.5 °F 72.7 °F 78% 30.10 in 10.0 mi WSW 6.9 mph - N/A   Clear
9:35 AM 81.5 °F 86.5 °F 72.9 °F 75% 30.11 in 10.0 mi WSW 6.9 mph - N/A   Clear
9:55 AM 81.7 °F 87.1 °F 73.4 °F 76% 30.11 in 10.0 mi WSW 5.8 mph - N/A   Clear
10:15 AM 82.4 °F 88.4 °F 73.6 °F 75% 30.11 in 10.0 mi WSW 4.6 mph - N/A   Clear
10:35 AM 82.2 °F 88.0 °F 73.8 °F 75% 30.11 in 10.0 mi West 4.6 mph - N/A   Clear
10:55 AM 82.4 °F 88.4 °F 73.9 °F 75% 30.10 in 10.0 mi West 3.5 mph - N/A   Clear
11:15 AM 83.3 °F 89.9 °F 73.9 °F 73% 30.10 in 10.0 mi West 5.8 mph - N/A   Clear
11:35 AM 85.1 °F 93.7 °F 75.2 °F 72% 30.10 in 10.0 mi WSW 3.5 mph - N/A   Clear
11:55 AM 85.8 °F 95.5 °F 75.7 °F 72% 30.09 in 10.0 mi SSW 3.5 mph - N/A   Clear
12:15 PM 87.3 °F 97.2 °F 75.4 °F 68% 30.08 in 10.0 mi WNW 4.6 mph - N/A   Clear
12:35 PM 88.0 °F 98.0 °F 75.2 °F 66% 30.08 in 10.0 mi SW 6.9 mph - N/A   Clear
12:55 PM 89.1 °F 99.1 °F 75.0 °F 63% 30.07 in 10.0 mi West 6.9 mph - N/A   Clear
1:15 PM 90.0 °F 99.0 °F 73.8 °F 59% 30.07 in 10.0 mi West 8.1 mph - N/A   Clear
1:35 PM 88.7 °F 96.2 °F 72.9 °F 59% 30.06 in 10.0 mi West 6.9 mph - N/A   Clear
1:55 PM 88.9 °F 97.6 °F 73.8 °F 61% 30.06 in 10.0 mi West 8.1 mph - N/A   Clear
2:15 PM 89.8 °F 98.6 °F 73.6 °F 59% 30.05 in 10.0 mi West 4.6 mph - N/A   Clear
2:35 PM 90.7 °F 99.6 °F 73.4 °F 57% 30.05 in 10.0 mi WNW 6.9 mph - N/A   Clear
2:55 PM 91.2 °F 99.7 °F 72.9 °F 55% 30.03 in 10.0 mi WSW 5.8 mph - N/A   Clear
3:15 PM 91.6 °F 98.2 °F 71.2 °F 51% 30.03 in 10.0 mi WSW 5.8 mph - N/A   Clear
3:35 PM 89.6 °F 96.2 °F 71.2 °F 55% 30.03 in 10.0 mi West 5.8 mph - N/A   Clear
3:55 PM 91.9 °F 98.4 °F 70.7 °F 50% 30.02 in 10.0 mi WSW 4.6 mph - N/A   Clear
4:15 PM 91.4 °F 97.3 °F 70.2 °F 50% 30.02 in 10.0 mi WSW 3.5 mph - N/A   Clear
4:35 PM 92.3 °F 99.2 °F 71.1 °F 50% 30.01 in 10.0 mi WNW 5.8 mph - N/A   Clear
4:55 PM 90.3 °F 96.7 °F 71.1 °F 53% 30.01 in 10.0 mi West 4.6 mph - N/A   Scattered Clouds
5:15 PM 89.2 °F 94.9 °F 70.9 °F 54% 30.01 in 10.0 mi SW 3.5 mph - N/A   Clear
5:35 PM 88.5 °F 94.0 °F 70.7 °F 55% 30.01 in 10.0 mi SW 3.5 mph - N/A   Clear
5:55 PM 87.6 °F 94.3 °F 72.0 °F 60% 30.01 in 10.0 mi Calm Calm - N/A   Clear
6:15 PM 86.7 °F 94.1 °F 73.0 °F 64% 30.01 in 10.0 mi SW 3.5 mph - N/A   Clear
6:35 PM 84.7 °F 91.4 °F 73.2 °F 68% 30.01 in 10.0 mi South 5.8 mph - N/A   Clear
6:55 PM 84.4 °F 92.4 °F 74.8 °F 73% 30.01 in 10.0 mi South 5.8 mph - N/A   Clear
7:15 PM 84.2 °F 92.6 °F 75.4 °F 75% 30.01 in 10.0 mi South 5.8 mph - N/A   Clear
7:35 PM 83.3 °F 90.8 °F 74.8 °F 76% 30.01 in 10.0 mi South 4.6 mph - N/A   Clear
7:55 PM 82.4 °F 89.2 °F 74.8 °F 78% 30.01 in 10.0 mi South 3.5 mph - N/A   Clear
8:15 PM 81.3 °F 87.6 °F 75.2 °F 82% 30.02 in 10.0 mi South 4.6 mph - N/A   Scattered Clouds
8:35 PM 81.7 °F 87.8 °F 74.7 °F 79% 30.02 in 10.0 mi South 4.6 mph - N/A   Scattered Clouds
8:55 PM 81.0 °F 86.5 °F 74.5 °F 81% 30.03 in 10.0 mi South 5.8 mph - N/A   Clear
9:15 PM 80.4 °F 85.5 °F 74.5 °F 82% 30.03 in 10.0 mi South 5.8 mph - N/A   Clear
9:35 PM 80.1 °F 84.8 °F 74.5 °F 83% 30.03 in 10.0 mi South 5.8 mph - N/A   Clear
9:55 PM 79.9 °F - 74.3 °F 83% 30.03 in 10.0 mi South 4.6 mph - N/A   Clear
10:15 PM 79.7 °F - 74.3 °F 83% 30.03 in 10.0 mi SSW 4.6 mph - N/A   Clear
10:35 PM 79.3 °F - 74.3 °F 84% 30.03 in 10.0 mi SSW 5.8 mph - N/A   Clear
10:55 PM 78.8 °F - 74.3 °F 86% 30.03 in 10.0 mi SSW 5.8 mph - N/A   Clear
11:15 PM 78.3 °F - 74.3 °F 88% 30.03 in 10.0 mi SSW 6.9 mph - N/A   Clear
11:35 PM 78.1 °F - 74.3 °F 88% 30.02 in 10.0 mi SSW 5.8 mph - N/A   Clear
11:55 PM 77.7 °F - 74.3 °F 89% 30.02 in 10.0 mi SSW 5.8 mph - N/A   Clear